createdAt,value
2022-08-24T00:02:03.901Z,97735.35
2022-08-24T00:04:32.697Z,97733.88
2022-08-24T00:07:02.309Z,97734.05
2022-08-24T00:09:32.070Z,97737.27
2022-08-24T00:12:00.429Z,97735.44
2022-08-24T00:14:29.333Z,97734.93
2022-08-24T00:16:58.585Z,97740.08
2022-08-24T00:19:29.379Z,97743.21
2022-08-24T00:21:57.803Z,97749.04
2022-08-24T00:24:26.345Z,97751.84
2022-08-24T00:26:54.998Z,97753.09
2022-08-24T00:29:24.072Z,97750.45
2022-08-24T00:31:52.238Z,97753.61
2022-08-24T00:34:20.401Z,97757.05
2022-08-24T00:36:48.487Z,97757.73
2022-08-24T00:39:17.050Z,97758.42
2022-08-24T00:41:47.270Z,97750.41
2022-08-24T00:44:16.958Z,97752.50
2022-08-24T00:46:44.921Z,97751.86
2022-08-24T00:49:30.443Z,97753.83
2022-08-24T00:52:05.760Z,97751.92
2022-08-24T00:54:42.813Z,97753.56
2022-08-24T00:57:18.438Z,97751.70
2022-08-24T00:59:57.458Z,97748.49
2022-08-24T01:02:29.870Z,97742.37
2022-08-24T01:05:01.646Z,97738.39
2022-08-24T01:07:31.673Z,97744.51
2022-08-24T01:10:04.291Z,97740.77
2022-08-24T01:12:34.793Z,97735.31
2022-08-24T01:15:07.083Z,97735.27
2022-08-24T01:17:55.346Z,97741.05
2022-08-24T01:20:26.441Z,97744.46
2022-08-24T01:23:22.248Z,97740.98
2022-08-24T01:25:50.865Z,97740.80
2022-08-24T01:28:25.180Z,97740.45
2022-08-24T01:30:56.089Z,97746.02
2022-08-24T01:33:31.556Z,97737.42
2022-08-24T01:36:08.451Z,97736.23
2022-08-24T01:38:36.816Z,97735.42
2022-08-24T01:41:04.948Z,97735.77
2022-08-24T01:43:34.390Z,97727.30
2022-08-24T01:46:08.405Z,97718.95
2022-08-24T01:48:37.266Z,97707.11
2022-08-24T01:51:05.323Z,97702.77
2022-08-24T01:53:34.040Z,97702.89
2022-08-24T01:56:02.330Z,97700.18
2022-08-24T01:58:30.810Z,97698.25
2022-08-24T02:01:00.385Z,97696.38
2022-08-24T02:03:30.369Z,97697.02
2022-08-24T02:05:59.815Z,97696.29
2022-08-24T02:08:28.185Z,97692.38
2022-08-24T02:10:56.700Z,97691.20
2022-08-24T02:13:25.315Z,97686.33
2022-08-24T02:15:53.417Z,97677.52
2022-08-24T02:18:21.464Z,97674.66
2022-08-24T02:20:50.281Z,97671.36
2022-08-24T02:23:18.793Z,97672.63
2022-08-24T02:25:47.598Z,97663.67
2022-08-24T02:28:15.897Z,97658.06
2022-08-24T02:30:45.061Z,97660.91
2022-08-24T02:33:13.433Z,97658.48
2022-08-24T02:35:42.283Z,97654.58
2022-08-24T02:38:11.116Z,97648.55
2022-08-24T02:40:39.521Z,97646.50
2022-08-24T02:43:07.585Z,97643.38
2022-08-24T02:45:42.429Z,97638.07
2022-08-24T02:48:11.899Z,97636.92
2022-08-24T02:50:42.648Z,97643.58
2022-08-24T02:53:12.193Z,97647.45
2022-08-24T02:55:41.912Z,97653.92
2022-08-24T02:58:13.211Z,97654.25
2022-08-24T03:00:42.487Z,97655.25
2022-08-24T03:03:11.658Z,97655.92
2022-08-24T03:05:42.808Z,97659.81
2022-08-24T03:08:10.890Z,97661.62
2022-08-24T03:10:39.956Z,97670.67
2022-08-24T03:13:08.414Z,97677.74
2022-08-24T03:15:36.551Z,97683.24
2022-08-24T03:18:05.245Z,97685.02
2022-08-24T03:20:33.310Z,97682.13
2022-08-24T03:23:01.478Z,97683.72
2022-08-24T03:25:29.889Z,97684.21
2022-08-24T03:27:57.908Z,97681.42
2022-08-24T03:30:26.810Z,97680.56
2022-08-24T03:32:55.363Z,97682.64
2022-08-24T03:35:23.513Z,97677.28
2022-08-24T03:37:52.021Z,97676.09
2022-08-24T03:40:22.214Z,97674.87
2022-08-24T03:42:51.520Z,97679.27
2022-08-24T03:45:21.049Z,97681.25
2022-08-24T03:47:49.731Z,97685.84
2022-08-24T03:50:19.273Z,97688.48
2022-08-24T03:52:48.249Z,97689.11
2022-08-24T03:55:16.424Z,97692.89
2022-08-24T03:57:44.642Z,97695.41
2022-08-24T04:00:13.874Z,97692.90
2022-08-24T04:02:50.195Z,97696.70
2022-08-24T04:05:20.590Z,97693.73
2022-08-24T04:07:48.798Z,97688.04
2022-08-24T04:10:16.768Z,97687.52
2022-08-24T04:12:45.695Z,97690.75
2022-08-24T04:15:14.897Z,97691.79
2022-08-24T04:17:43.833Z,97692.67
2022-08-24T04:20:12.193Z,97696.64
2022-08-24T04:22:41.801Z,97693.60
2022-08-24T04:25:12.001Z,97697.70
2022-08-24T04:27:41.818Z,97702.64
2022-08-24T04:30:14.292Z,97706.34
2022-08-24T04:33:01.041Z,97707.78
2022-08-24T04:35:29.638Z,97711.69
2022-08-24T04:37:58.060Z,97706.95
2022-08-24T04:40:26.569Z,97704.61
2022-08-24T04:42:54.711Z,97710.20
2022-08-24T04:45:23.363Z,97717.31
2022-08-24T04:47:52.158Z,97717.25
2022-08-24T04:50:21.367Z,97711.60
2022-08-24T04:52:53.034Z,97711.14
2022-08-24T04:55:23.016Z,97707.88
2022-08-24T04:57:51.879Z,97701.76
2022-08-24T05:00:23.624Z,97702.63
2022-08-24T05:02:52.345Z,97700.72
2022-08-24T05:05:20.392Z,97700.38
2022-08-24T05:07:50.693Z,97705.14
2022-08-24T05:10:22.747Z,97697.39
2022-08-24T05:12:50.979Z,97699.44
2022-08-24T05:15:19.256Z,97690.84
2022-08-24T05:17:51.229Z,97683.14
2022-08-24T05:20:22.427Z,97685.13
2022-08-24T05:22:56.022Z,97684.42
2022-08-24T05:25:24.922Z,97679.39
2022-08-24T05:27:54.245Z,97683.72
2022-08-24T05:30:22.987Z,97687.80
2022-08-24T05:32:51.223Z,97688.08
2022-08-24T05:35:21.869Z,97688.68
2022-08-24T05:37:50.177Z,97682.64
2022-08-24T05:40:21.538Z,97679.16
2022-08-24T05:42:52.466Z,97681.52
2022-08-24T05:45:21.363Z,97682.16
2022-08-24T05:47:50.508Z,97676.46
2022-08-24T05:50:42.063Z,97680.29
2022-08-24T05:53:11.177Z,97685.13
2022-08-24T05:55:41.075Z,97689.64
2022-08-24T05:58:10.991Z,97687.71
2022-08-24T06:00:46.912Z,97693.38
2022-08-24T06:03:15.663Z,97692.00
2022-08-24T06:05:49.971Z,97691.09
2022-08-24T06:08:18.378Z,97688.36
2022-08-24T06:10:47.989Z,97684.27
2022-08-24T06:13:17.704Z,97684.17
2022-08-24T06:16:04.825Z,97687.11
2022-08-24T06:18:36.849Z,97690.09
2022-08-24T06:21:18.965Z,97686.71
2022-08-24T06:23:51.216Z,97689.23
2022-08-24T06:26:39.243Z,97693.55
2022-08-24T06:29:08.554Z,97684.17
2022-08-24T06:31:44.224Z,97685.10
2022-08-24T06:34:19.844Z,97686.15
2022-08-24T06:36:50.068Z,97686.27
2022-08-24T06:39:19.684Z,97686.18
2022-08-24T06:41:48.884Z,97679.99
2022-08-24T06:44:21.741Z,97678.86
2022-08-24T06:46:56.476Z,97682.02
2022-08-24T06:49:25.017Z,97678.91
2022-08-24T06:51:53.101Z,97682.36
2022-08-24T06:54:22.183Z,97683.61
2022-08-24T06:56:56.440Z,97690.40
2022-08-24T06:59:29.184Z,97695.49
2022-08-24T07:01:58.474Z,97705.27
2022-08-24T07:04:29.323Z,97702.54
2022-08-24T07:07:26.817Z,97699.33
2022-08-24T07:09:56.460Z,97704.70
2022-08-24T07:12:25.682Z,97702.70
2022-08-24T07:14:59.121Z,97698.34
2022-08-24T07:17:37.460Z,97699.85
2022-08-24T07:20:09.829Z,97704.02
2022-08-24T07:22:56.379Z,97699.84
2022-08-24T07:25:27.741Z,97699.29
2022-08-24T07:28:01.157Z,97700.58
2022-08-24T07:30:35.258Z,97703.58
2022-08-24T07:33:07.928Z,97704.00
2022-08-24T07:35:37.760Z,97700.13
2022-08-24T07:38:08.670Z,97701.76
2022-08-24T07:41:09.494Z,97707.83
2022-08-24T07:43:40.949Z,97714.25
2022-08-24T07:46:14.765Z,97717.42
2022-08-24T07:48:45.938Z,97722.65
2022-08-24T07:51:19.415Z,97722.77
2022-08-24T07:53:54.008Z,97724.95
2022-08-24T07:56:31.040Z,97730.63
2022-08-24T07:59:02.278Z,97732.22
2022-08-24T08:01:31.278Z,97732.02
2022-08-24T08:04:03.000Z,97733.88
2022-08-24T08:06:32.377Z,97731.70
2022-08-24T08:09:05.034Z,97729.14
2022-08-24T08:11:33.951Z,97734.81
2022-08-24T08:14:02.227Z,97734.20
2022-08-24T08:16:34.444Z,97739.49
2022-08-24T08:19:11.060Z,97745.72
2022-08-24T08:22:08.388Z,97749.69
2022-08-24T08:24:44.494Z,97747.67
2022-08-24T08:27:15.194Z,97756.47
2022-08-24T08:29:44.178Z,97759.31
2022-08-24T08:32:17.029Z,97758.87
2022-08-24T08:34:47.214Z,97755.33
2022-08-24T08:37:16.816Z,97759.10
2022-08-24T08:39:46.411Z,97745.06
2022-08-24T08:42:45.671Z,97736.28
2022-08-24T08:45:29.256Z,97740.05
2022-08-24T08:48:25.881Z,97744.55
2022-08-24T08:51:02.801Z,97740.19
2022-08-24T08:54:00.951Z,97734.58
2022-08-24T08:56:44.599Z,97735.08
2022-08-24T08:59:43.908Z,97737.11
2022-08-24T09:02:36.616Z,97738.66
2022-08-24T09:05:35.766Z,97733.55
2022-08-24T09:08:36.494Z,97745.27
2022-08-24T09:11:27.059Z,97737.19
2022-08-24T09:14:12.649Z,97719.52
2022-08-24T09:17:21.078Z,97711.72
2022-08-24T09:20:13.859Z,97697.04
2022-08-24T09:22:48.321Z,97687.74
2022-08-24T09:25:47.558Z,97697.84
2022-08-24T09:28:20.360Z,97712.66
2022-08-24T09:31:17.668Z,97731.36
2022-08-24T09:34:14.490Z,97733.73
2022-08-24T09:37:01.153Z,97732.80
2022-08-24T09:39:58.788Z,97727.63
2022-08-24T09:42:57.616Z,97729.68
2022-08-24T09:46:09.237Z,97720.40
2022-08-24T09:48:47.705Z,97710.70
2022-08-24T09:51:54.047Z,97708.55
2022-08-24T09:54:40.358Z,97716.28
2022-08-24T09:57:44.209Z,97712.61
2022-08-24T10:00:47.078Z,97707.17
2022-08-24T10:03:38.312Z,97709.28
2022-08-24T10:06:29.848Z,97704.31
2022-08-24T10:09:20.555Z,97702.17
2022-08-24T10:12:15.865Z,97696.24
2022-08-24T10:15:04.516Z,97688.52
2022-08-24T10:18:11.118Z,97683.85
2022-08-24T10:21:02.945Z,97672.60
2022-08-24T10:23:55.191Z,97670.02
2022-08-24T10:26:39.123Z,97668.60
2022-08-24T10:29:33.083Z,97668.21
2022-08-24T10:32:19.371Z,97664.41
2022-08-24T10:35:20.457Z,97662.06
2022-08-24T10:38:47.993Z,97662.67
2022-08-24T10:41:47.170Z,97658.56
2022-08-24T10:44:35.179Z,97656.88
2022-08-24T10:47:19.653Z,97660.20
2022-08-24T10:49:55.088Z,97658.75
2022-08-24T10:53:08.724Z,97660.46
2022-08-24T10:55:38.009Z,97665.14
2022-08-24T10:58:45.722Z,97659.25
2022-08-24T11:01:18.399Z,97649.50
2022-08-24T11:03:57.170Z,97644.30
2022-08-24T11:06:28.806Z,97642.45
2022-08-24T11:09:11.823Z,97643.66
2022-08-24T11:11:52.847Z,97643.21
2022-08-24T11:14:27.623Z,97640.60
2022-08-24T11:17:19.297Z,97637.83
2022-08-24T11:19:49.050Z,97648.95
2022-08-24T11:22:57.458Z,97653.86
2022-08-24T11:25:28.238Z,97637.80
2022-08-24T11:28:25.670Z,97635.43
2022-08-24T11:30:54.141Z,97633.55
2022-08-24T11:33:33.197Z,97631.29
2022-08-24T11:36:14.431Z,97629.23
2022-08-24T11:39:23.242Z,97630.09
2022-08-24T11:42:39.341Z,97627.98
2022-08-24T11:45:23.993Z,97628.42
2022-08-24T11:48:02.215Z,97625.84
2022-08-24T11:50:43.345Z,97625.45
2022-08-24T11:53:24.487Z,97619.80
2022-08-24T11:56:09.711Z,97620.09
2022-08-24T11:58:50.773Z,97617.08
2022-08-24T12:01:51.615Z,97618.58
2022-08-24T12:04:52.133Z,97619.95
2022-08-24T12:07:58.777Z,97618.17
2022-08-24T12:10:51.422Z,97611.19
2022-08-24T12:13:22.290Z,97614.80
2022-08-24T12:16:31.751Z,97608.35
2022-08-24T12:19:16.181Z,97607.98
2022-08-24T12:21:49.833Z,97606.38
2022-08-24T12:24:36.288Z,97604.45
2022-08-24T12:27:17.772Z,97603.77
2022-08-24T12:29:54.969Z,97600.01
2022-08-24T12:32:39.202Z,97595.47
2022-08-24T12:35:15.336Z,97594.63
2022-08-24T12:37:52.410Z,97594.94
2022-08-24T12:40:36.407Z,97597.52
2022-08-24T12:43:42.939Z,97595.67
2022-08-24T12:46:15.867Z,97597.42
2022-08-24T12:49:02.589Z,97592.86
2022-08-24T12:52:08.384Z,97596.07
2022-08-24T12:54:37.218Z,97596.17
2022-08-24T12:57:13.070Z,97602.50
2022-08-24T12:59:52.688Z,97603.11
2022-08-24T13:02:22.455Z,97603.84
2022-08-24T13:04:56.043Z,97601.40
2022-08-24T13:07:24.461Z,97599.77
2022-08-24T13:09:53.476Z,97600.75
2022-08-24T13:12:33.657Z,97596.91
2022-08-24T13:15:26.547Z,97598.02
2022-08-24T13:18:21.471Z,97598.98
2022-08-24T13:20:51.495Z,97599.53
2022-08-24T13:23:25.309Z,97600.73
2022-08-24T13:26:04.959Z,97595.40
2022-08-24T13:28:54.354Z,97590.45
2022-08-24T13:31:33.262Z,97589.18
2022-08-24T13:34:09.274Z,97587.74
2022-08-24T13:36:45.066Z,97586.84
2022-08-24T13:39:51.853Z,97587.02
2022-08-24T13:42:37.354Z,97582.45
2022-08-24T13:45:33.380Z,97581.88
2022-08-24T13:48:10.429Z,97578.55
2022-08-24T13:51:14.752Z,97578.35
2022-08-24T13:53:50.823Z,97575.84
2022-08-24T13:56:44.673Z,97575.79
2022-08-24T13:59:47.255Z,97575.69
2022-08-24T14:02:16.786Z,97572.55
2022-08-24T14:04:53.670Z,97575.94
2022-08-24T14:07:28.404Z,97576.11
2022-08-24T14:10:34.391Z,97575.13
2022-08-24T14:13:36.029Z,97575.08
2022-08-24T14:16:56.167Z,97573.34
2022-08-24T14:19:47.402Z,97572.50
2022-08-24T14:22:27.969Z,97570.33
2022-08-24T14:25:22.611Z,97570.81
2022-08-24T14:28:23.529Z,97569.94
2022-08-24T14:31:11.120Z,97567.83
2022-08-24T14:33:52.979Z,97567.95
2022-08-24T14:36:39.743Z,97566.83
2022-08-24T14:39:35.426Z,97565.64
2022-08-24T14:42:41.578Z,97563.48
2022-08-24T14:45:14.363Z,97558.59
2022-08-24T14:48:15.429Z,97560.34
2022-08-24T14:50:49.100Z,97559.59
2022-08-24T14:53:44.533Z,97560.98
2022-08-24T14:56:39.169Z,97557.06
2022-08-24T14:59:16.144Z,97561.33
2022-08-24T15:01:47.000Z,97557.66
2022-08-24T15:04:43.787Z,97557.27
2022-08-24T15:07:29.996Z,97557.05
2022-08-24T15:10:04.831Z,97554.28
2022-08-24T15:13:06.747Z,97551.67
2022-08-24T15:15:51.209Z,97551.59
2022-08-24T15:18:28.166Z,97550.01
2022-08-24T15:21:30.438Z,97552.73
2022-08-24T15:27:22.466Z,97547.98
2022-08-24T15:30:21.966Z,97550.27
2022-08-24T15:33:09.530Z,97548.03
2022-08-24T15:35:42.306Z,97548.05
2022-08-24T15:38:40.985Z,97549.11
2022-08-24T15:41:38.010Z,97549.36
2022-08-24T15:44:09.553Z,97548.99
2022-08-24T15:46:56.825Z,97549.11
2022-08-24T15:49:36.583Z,97545.09
2022-08-24T15:52:08.850Z,97546.92
2022-08-24T15:54:58.550Z,97552.00
2022-08-24T15:57:31.101Z,97550.54
2022-08-24T16:00:15.442Z,97548.48
2022-08-24T16:02:43.762Z,97549.54
2022-08-24T16:05:37.304Z,97549.97
2022-08-24T16:08:12.966Z,97548.31
2022-08-24T16:10:57.012Z,97546.25
2022-08-24T16:13:31.012Z,97547.08
2022-08-24T16:16:09.175Z,97547.67
2022-08-24T16:19:00.016Z,97549.52
2022-08-24T16:21:37.918Z,97551.04
2022-08-24T16:24:25.450Z,97551.46
2022-08-24T16:26:58.763Z,97554.30
2022-08-24T16:29:44.855Z,97557.05
2022-08-24T16:32:30.419Z,97558.41
2022-08-24T16:35:07.256Z,97558.59
2022-08-24T16:37:35.506Z,97557.56
2022-08-24T16:40:04.989Z,97560.83
2022-08-24T16:42:34.705Z,97560.67
2022-08-24T16:45:05.204Z,97561.54
2022-08-24T16:47:33.665Z,97563.39
2022-08-24T16:50:06.041Z,97566.10
2022-08-24T16:52:34.444Z,97569.11
2022-08-24T16:55:02.837Z,97574.71
2022-08-24T16:57:40.035Z,97576.85
2022-08-24T17:00:15.696Z,97575.98
2022-08-24T17:02:47.632Z,97578.03
2022-08-24T17:05:18.713Z,97579.94
2022-08-24T17:07:48.424Z,97580.22
2022-08-24T17:10:19.258Z,97582.93
2022-08-24T17:12:50.650Z,97583.27
2022-08-24T17:15:20.615Z,97584.23
2022-08-24T17:17:58.550Z,97587.63
2022-08-24T17:20:26.710Z,97592.52
2022-08-24T17:22:56.304Z,97593.41
2022-08-24T17:25:28.572Z,97596.00
2022-08-24T17:27:59.151Z,97595.08
2022-08-24T17:30:30.057Z,97599.27
2022-08-24T17:32:59.365Z,97603.98
2022-08-24T17:35:28.075Z,97611.39
2022-08-24T17:37:57.737Z,97615.84
2022-08-24T17:40:29.541Z,97624.71
2022-08-24T17:42:59.172Z,97627.38
2022-08-24T17:45:27.405Z,97637.95
2022-08-24T17:47:55.798Z,97648.89
2022-08-24T17:50:29.423Z,97653.83
2022-08-24T17:53:06.491Z,97653.95
2022-08-24T17:55:34.670Z,97662.79
2022-08-24T17:58:03.717Z,97672.09
2022-08-24T18:00:32.043Z,97677.48
2022-08-24T18:03:01.335Z,97679.53
2022-08-24T18:05:33.091Z,97679.85
2022-08-24T18:08:02.148Z,97684.15
2022-08-24T18:10:34.466Z,97683.89
2022-08-24T18:13:04.091Z,97687.14
2022-08-24T18:15:36.418Z,97690.27
2022-08-24T18:18:09.474Z,97696.51
2022-08-24T18:20:40.827Z,97696.49
2022-08-24T18:23:11.784Z,97701.20
2022-08-24T18:25:46.132Z,97711.86
2022-08-24T18:28:16.168Z,97710.62
2022-08-24T18:30:45.066Z,97712.55
2022-08-24T18:33:13.964Z,97718.77
2022-08-24T18:35:42.284Z,97723.79
2022-08-24T18:38:11.132Z,97728.54
2022-08-24T18:40:41.578Z,97724.78
2022-08-24T18:43:23.902Z,97733.23
2022-08-24T18:45:53.263Z,97736.19
2022-08-24T18:48:23.593Z,97733.51
2022-08-24T18:50:52.990Z,97733.36
2022-08-24T18:53:26.098Z,97737.38
2022-08-24T18:55:54.503Z,97736.77
2022-08-24T18:58:22.591Z,97742.30
2022-08-24T19:00:52.303Z,97742.88
2022-08-24T19:03:23.632Z,97743.82
2022-08-24T19:05:51.886Z,97740.34
2022-08-24T19:08:20.788Z,97743.55
2022-08-24T19:10:51.779Z,97748.03
2022-08-24T19:13:19.938Z,97742.27
2022-08-24T19:15:49.680Z,97747.77
2022-08-24T19:18:20.613Z,97747.79
2022-08-24T19:20:52.076Z,97756.84
2022-08-24T19:23:30.134Z,97753.40
2022-08-24T19:25:59.365Z,97755.84
2022-08-24T19:28:28.754Z,97763.23
2022-08-24T19:30:59.891Z,97764.20
2022-08-24T19:33:35.894Z,97764.91
2022-08-24T19:36:06.418Z,97765.42
2022-08-24T19:38:34.550Z,97767.73
2022-08-24T19:41:11.873Z,97764.48
2022-08-24T19:44:00.739Z,97763.40
2022-08-24T19:46:28.890Z,97768.48
2022-08-24T19:48:57.268Z,97770.91
2022-08-24T19:51:26.807Z,97773.40
2022-08-24T19:53:54.974Z,97773.46
2022-08-24T19:56:23.844Z,97775.13
2022-08-24T19:58:58.789Z,97775.29
2022-08-24T20:01:32.672Z,97779.65
2022-08-24T20:04:06.028Z,97783.04
2022-08-24T20:06:37.325Z,97789.73
2022-08-24T20:09:05.602Z,97791.71
2022-08-24T20:11:37.002Z,97797.68
2022-08-24T20:14:06.656Z,97801.60
2022-08-24T20:16:39.218Z,97799.93
2022-08-24T20:19:08.099Z,97800.45
2022-08-24T20:21:37.776Z,97801.37
2022-08-24T20:24:06.581Z,97800.64
2022-08-24T20:26:46.953Z,97800.72
2022-08-24T20:29:15.294Z,97802.55
2022-08-24T20:31:50.740Z,97801.14
2022-08-24T20:34:23.236Z,97795.70
2022-08-24T20:36:51.231Z,97798.01
2022-08-24T20:39:22.831Z,97799.98
2022-08-24T20:41:52.883Z,97801.86
2022-08-24T20:44:24.497Z,97802.52
2022-08-24T20:46:54.010Z,97804.60
2022-08-24T20:49:26.833Z,97802.17
2022-08-24T20:51:55.669Z,97808.62
2022-08-24T20:54:24.167Z,97811.34
2022-08-24T20:56:52.556Z,97807.73
2022-08-24T20:59:22.491Z,97810.09
2022-08-24T21:01:51.673Z,97816.59
2022-08-24T21:04:19.763Z,97815.39
2022-08-24T21:06:48.019Z,97819.28
2022-08-24T21:09:19.407Z,97820.77
2022-08-24T21:11:47.464Z,97822.06
2022-08-24T21:14:17.069Z,97823.50
2022-08-24T21:16:46.301Z,97821.02
2022-08-24T21:19:18.100Z,97817.95
2022-08-24T21:21:47.577Z,97823.26
2022-08-24T21:24:16.050Z,97826.32
2022-08-24T21:26:44.293Z,97822.07
2022-08-24T21:29:12.291Z,97823.13
2022-08-24T21:31:40.358Z,97829.83
2022-08-24T21:34:28.002Z,97828.97
2022-08-24T21:36:56.104Z,97827.61
2022-08-24T21:39:24.168Z,97823.41
2022-08-24T21:41:53.563Z,97818.98
2022-08-24T21:44:22.110Z,97815.02
2022-08-24T21:46:51.965Z,97812.91
2022-08-24T21:49:20.617Z,97815.84
2022-08-24T21:51:48.671Z,97819.29
2022-08-24T21:54:17.329Z,97817.45
2022-08-24T21:56:45.401Z,97814.73
2022-08-24T21:59:13.782Z,97815.31
2022-08-24T22:01:43.883Z,97810.48
2022-08-24T22:04:12.364Z,97810.36
2022-08-24T22:06:40.547Z,97817.75
2022-08-24T22:09:09.004Z,97816.25
2022-08-24T22:11:37.097Z,97820.75
2022-08-24T22:14:05.630Z,97822.46
2022-08-24T22:16:36.921Z,97821.70
2022-08-24T22:19:07.063Z,97825.61
2022-08-24T22:21:36.386Z,97821.67
2022-08-24T22:24:04.818Z,97819.92
2022-08-24T22:26:34.481Z,97814.91
2022-08-24T22:29:05.438Z,97815.58
2022-08-24T22:31:36.180Z,97817.02
2022-08-24T22:34:10.122Z,97807.89
2022-08-24T22:36:40.451Z,97808.84
2022-08-24T22:39:11.868Z,97813.76
2022-08-24T22:41:40.890Z,97805.80
2022-08-24T22:44:21.722Z,97805.25
2022-08-24T22:46:56.305Z,97803.98
2022-08-24T22:49:29.173Z,97810.12
2022-08-24T22:51:57.323Z,97804.73
2022-08-24T22:54:26.178Z,97803.80
2022-08-24T22:56:57.314Z,97805.38
2022-08-24T22:59:28.584Z,97803.80
2022-08-24T23:01:58.283Z,97803.25
2022-08-24T23:04:32.106Z,97800.81
2022-08-24T23:07:01.233Z,97797.36
2022-08-24T23:09:29.481Z,97795.52
2022-08-24T23:12:15.526Z,97791.05
2022-08-24T23:14:43.681Z,97787.52
2022-08-24T23:17:12.186Z,97784.02
2022-08-24T23:19:58.765Z,97783.63
2022-08-24T23:22:38.436Z,97785.23
2022-08-24T23:25:10.076Z,97784.70
2022-08-24T23:27:38.984Z,97783.38
2022-08-24T23:30:11.053Z,97781.17
2022-08-24T23:32:39.911Z,97782.16
2022-08-24T23:35:09.016Z,97777.52
2022-08-24T23:37:37.568Z,97775.84
2022-08-24T23:40:07.611Z,97776.38
2022-08-24T23:42:35.608Z,97776.95
2022-08-24T23:45:03.850Z,97782.98
2022-08-24T23:47:36.131Z,97787.02
2022-08-24T23:50:10.732Z,97784.16
2022-08-24T23:52:39.951Z,97786.43
2022-08-24T23:55:20.910Z,97782.80
2022-08-24T23:57:52.732Z,97777.53
